sensor_id;sensor_type;location;lat;lon;timestamp;P1;durP1;ratioP1;P2;durP2;ratioP2
23060;SDS011;11698;47.690;9.132;2023-03-19T00:01:50;5.00;;;2.80;;
23060;SDS011;11698;47.690;9.132;2023-03-19T00:04:16;4.90;;;2.65;;
23060;SDS011;11698;47.690;9.132;2023-03-19T00:06:43;4.47;;;2.97;;
23060;SDS011;11698;47.690;9.132;2023-03-19T00:09:09;5.38;;;2.83;;
23060;SDS011;11698;47.690;9.132;2023-03-19T00:11:35;3.42;;;2.58;;
23060;SDS011;11698;47.690;9.132;2023-03-19T00:14:01;3.42;;;2.35;;
23060;SDS011;11698;47.690;9.132;2023-03-19T00:16:27;3.85;;;2.50;;
23060;SDS011;11698;47.690;9.132;2023-03-19T00:18:53;4.07;;;2.40;;
23060;SDS011;11698;47.690;9.132;2023-03-19T00:21:19;4.63;;;2.53;;
23060;SDS011;11698;47.690;9.132;2023-03-19T00:23:46;4.28;;;2.53;;
23060;SDS011;11698;47.690;9.132;2023-03-19T00:26:12;4.18;;;2.40;;
23060;SDS011;11698;47.690;9.132;2023-03-19T00:28:38;3.07;;;2.40;;
23060;SDS011;11698;47.690;9.132;2023-03-19T00:31:14;3.38;;;2.22;;
23060;SDS011;11698;47.690;9.132;2023-03-19T00:33:41;3.13;;;2.38;;
23060;SDS011;11698;47.690;9.132;2023-03-19T00:36:07;3.28;;;2.25;;
23060;SDS011;11698;47.690;9.132;2023-03-19T00:38:34;4.35;;;2.10;;
23060;SDS011;11698;47.690;9.132;2023-03-19T00:41:00;4.07;;;2.35;;
23060;SDS011;11698;47.690;9.132;2023-03-19T00:43:26;4.22;;;2.33;;
23060;SDS011;11698;47.690;9.132;2023-03-19T00:45:52;3.65;;;2.45;;
23060;SDS011;11698;47.690;9.132;2023-03-19T00:48:19;5.45;;;2.58;;
23060;SDS011;11698;47.690;9.132;2023-03-19T00:50:45;4.80;;;2.38;;
23060;SDS011;11698;47.690;9.132;2023-03-19T00:53:11;4.28;;;2.50;;
23060;SDS011;11698;47.690;9.132;2023-03-19T00:55:37;3.78;;;2.38;;
23060;SDS011;11698;47.690;9.132;2023-03-19T00:58:03;3.80;;;1.95;;
23060;SDS011;11698;47.690;9.132;2023-03-19T01:00:31;5.68;;;2.70;;
23060;SDS011;11698;47.690;9.132;2023-03-19T01:02:57;3.50;;;2.22;;
23060;SDS011;11698;47.690;9.132;2023-03-19T01:05:24;3.47;;;2.28;;
23060;SDS011;11698;47.690;9.132;2023-03-19T01:07:50;2.97;;;2.33;;
23060;SDS011;11698;47.690;9.132;2023-03-19T01:10:17;4.55;;;2.47;;
23060;SDS011;11698;47.690;9.132;2023-03-19T01:12:43;4.00;;;2.50;;
23060;SDS011;11698;47.690;9.132;2023-03-19T01:15:09;4.47;;;2.43;;
23060;SDS011;11698;47.690;9.132;2023-03-19T01:17:35;4.30;;;2.10;;
23060;SDS011;11698;47.690;9.132;2023-03-19T01:20:02;4.28;;;2.22;;
23060;SDS011;11698;47.690;9.132;2023-03-19T01:22:28;4.63;;;2.10;;
23060;SDS011;11698;47.690;9.132;2023-03-19T01:24:54;3.35;;;2.03;;
23060;SDS011;11698;47.690;9.132;2023-03-19T01:27:20;3.65;;;1.70;;
23060;SDS011;11698;47.690;9.132;2023-03-19T01:29:46;4.25;;;1.92;;
23060;SDS011;11698;47.690;9.132;2023-03-19T01:32:12;3.47;;;2.00;;
23060;SDS011;11698;47.690;9.132;2023-03-19T01:34:38;3.97;;;1.90;;
23060;SDS011;11698;47.690;9.132;2023-03-19T01:37:05;2.38;;;1.80;;
23060;SDS011;11698;47.690;9.132;2023-03-19T01:39:31;4.00;;;2.35;;
23060;SDS011;11698;47.690;9.132;2023-03-19T01:41:59;3.83;;;2.33;;
23060;SDS011;11698;47.690;9.132;2023-03-19T01:44:26;5.38;;;2.35;;
23060;SDS011;11698;47.690;9.132;2023-03-19T01:46:53;3.25;;;1.88;;
23060;SDS011;11698;47.690;9.132;2023-03-19T01:49:19;5.57;;;2.10;;
23060;SDS011;11698;47.690;9.132;2023-03-19T01:51:46;2.60;;;2.08;;
23060;SDS011;11698;47.690;9.132;2023-03-19T01:54:13;3.58;;;1.95;;
23060;SDS011;11698;47.690;9.132;2023-03-19T01:56:40;4.40;;;1.90;;
23060;SDS011;11698;47.690;9.132;2023-03-19T01:59:11;5.53;;;2.10;;
23060;SDS011;11698;47.690;9.132;2023-03-19T02:01:42;4.67;;;2.03;;
23060;SDS011;11698;47.690;9.132;2023-03-19T02:04:11;3.90;;;2.00;;
23060;SDS011;11698;47.690;9.132;2023-03-19T02:06:38;3.15;;;1.75;;
23060;SDS011;11698;47.690;9.132;2023-03-19T02:09:04;5.00;;;2.10;;
23060;SDS011;11698;47.690;9.132;2023-03-19T02:11:31;2.50;;;1.90;;
23060;SDS011;11698;47.690;9.132;2023-03-19T02:13:57;4.65;;;2.20;;
23060;SDS011;11698;47.690;9.132;2023-03-19T02:16:23;3.95;;;1.65;;
23060;SDS011;11698;47.690;9.132;2023-03-19T02:18:49;3.38;;;2.00;;
23060;SDS011;11698;47.690;9.132;2023-03-19T02:21:16;2.30;;;1.80;;
23060;SDS011;11698;47.690;9.132;2023-03-19T02:23:48;3.92;;;2.20;;
23060;SDS011;11698;47.690;9.132;2023-03-19T02:26:18;4.37;;;2.20;;
23060;SDS011;11698;47.690;9.132;2023-03-19T02:28:45;3.17;;;2.10;;
23060;SDS011;11698;47.690;9.132;2023-03-19T02:31:12;4.65;;;2.05;;
23060;SDS011;11698;47.690;9.132;2023-03-19T02:33:40;5.55;;;2.20;;
23060;SDS011;11698;47.690;9.132;2023-03-19T02:36:08;4.50;;;2.10;;
23060;SDS011;11698;47.690;9.132;2023-03-19T02:38:35;2.95;;;1.88;;
23060;SDS011;11698;47.690;9.132;2023-03-19T02:41:04;3.20;;;1.90;;
23060;SDS011;11698;47.690;9.132;2023-03-19T02:43:31;3.10;;;1.90;;
23060;SDS011;11698;47.690;9.132;2023-03-19T02:45:58;3.25;;;1.88;;
23060;SDS011;11698;47.690;9.132;2023-03-19T02:48:24;3.47;;;2.08;;
23060;SDS011;11698;47.690;9.132;2023-03-19T02:50:50;3.58;;;1.90;;
23060;SDS011;11698;47.690;9.132;2023-03-19T02:53:16;3.10;;;2.08;;
23060;SDS011;11698;47.690;9.132;2023-03-19T02:55:43;3.55;;;2.05;;
23060;SDS011;11698;47.690;9.132;2023-03-19T02:58:09;3.30;;;1.98;;
23060;SDS011;11698;47.690;9.132;2023-03-19T03:00:35;5.95;;;2.10;;
23060;SDS011;11698;47.690;9.132;2023-03-19T03:03:01;3.45;;;1.92;;
23060;SDS011;11698;47.690;9.132;2023-03-19T03:05:27;3.63;;;2.22;;
23060;SDS011;11698;47.690;9.132;2023-03-19T03:07:53;2.25;;;1.83;;
23060;SDS011;11698;47.690;9.132;2023-03-19T03:10:19;2.70;;;1.95;;
23060;SDS011;11698;47.690;9.132;2023-03-19T03:12:45;4.45;;;2.30;;
23060;SDS011;11698;47.690;9.132;2023-03-19T03:15:11;2.77;;;1.93;;
23060;SDS011;11698;47.690;9.132;2023-03-19T03:17:38;3.65;;;2.05;;
23060;SDS011;11698;47.690;9.132;2023-03-19T03:20:05;4.10;;;1.92;;
23060;SDS011;11698;47.690;9.132;2023-03-19T03:22:31;3.92;;;2.20;;
23060;SDS011;11698;47.690;9.132;2023-03-19T03:24:57;5.18;;;2.30;;
23060;SDS011;11698;47.690;9.132;2023-03-19T03:27:23;3.93;;;2.33;;
23060;SDS011;11698;47.690;9.132;2023-03-19T03:29:51;3.30;;;2.10;;
23060;SDS011;11698;47.690;9.132;2023-03-19T03:32:16;3.88;;;2.17;;
23060;SDS011;11698;47.690;9.132;2023-03-19T03:34:42;2.88;;;1.90;;
23060;SDS011;11698;47.690;9.132;2023-03-19T03:37:10;2.55;;;1.90;;
23060;SDS011;11698;47.690;9.132;2023-03-19T03:39:36;4.15;;;1.98;;
23060;SDS011;11698;47.690;9.132;2023-03-19T03:42:02;2.92;;;2.08;;
23060;SDS011;11698;47.690;9.132;2023-03-19T03:44:28;3.42;;;1.77;;
23060;SDS011;11698;47.690;9.132;2023-03-19T03:46:54;4.28;;;1.83;;
23060;SDS011;11698;47.690;9.132;2023-03-19T03:49:20;3.88;;;2.00;;
23060;SDS011;11698;47.690;9.132;2023-03-19T03:51:46;2.45;;;2.03;;
23060;SDS011;11698;47.690;9.132;2023-03-19T03:54:12;3.00;;;2.00;;
23060;SDS011;11698;47.690;9.132;2023-03-19T03:56:38;2.28;;;1.65;;
23060;SDS011;11698;47.690;9.132;2023-03-19T03:59:04;3.63;;;1.67;;
23060;SDS011;11698;47.690;9.132;2023-03-19T04:01:31;4.23;;;1.90;;
23060;SDS011;11698;47.690;9.132;2023-03-19T04:03:58;2.80;;;2.10;;
23060;SDS011;11698;47.690;9.132;2023-03-19T04:06:24;3.53;;;2.15;;
23060;SDS011;11698;47.690;9.132;2023-03-19T04:08:51;2.50;;;1.60;;
23060;SDS011;11698;47.690;9.132;2023-03-19T04:11:17;3.80;;;1.92;;
23060;SDS011;11698;47.690;9.132;2023-03-19T04:13:43;3.07;;;1.63;;
23060;SDS011;11698;47.690;9.132;2023-03-19T04:16:10;3.75;;;1.90;;
23060;SDS011;11698;47.690;9.132;2023-03-19T04:18:37;4.50;;;2.05;;
23060;SDS011;11698;47.690;9.132;2023-03-19T04:21:04;4.05;;;1.77;;
23060;SDS011;11698;47.690;9.132;2023-03-19T04:23:30;4.35;;;2.20;;
23060;SDS011;11698;47.690;9.132;2023-03-19T04:26:00;3.55;;;1.88;;
23060;SDS011;11698;47.690;9.132;2023-03-19T04:28:27;4.93;;;2.47;;
23060;SDS011;11698;47.690;9.132;2023-03-19T04:30:59;3.90;;;2.30;;
23060;SDS011;11698;47.690;9.132;2023-03-19T04:33:26;4.60;;;2.00;;
23060;SDS011;11698;47.690;9.132;2023-03-19T04:35:52;3.53;;;1.90;;
23060;SDS011;11698;47.690;9.132;2023-03-19T04:38:19;3.67;;;2.10;;
23060;SDS011;11698;47.690;9.132;2023-03-19T04:40:45;3.05;;;2.08;;
23060;SDS011;11698;47.690;9.132;2023-03-19T04:43:12;4.40;;;2.08;;
23060;SDS011;11698;47.690;9.132;2023-03-19T04:45:38;3.28;;;1.85;;
23060;SDS011;11698;47.690;9.132;2023-03-19T04:48:05;3.35;;;2.20;;
23060;SDS011;11698;47.690;9.132;2023-03-19T04:50:31;4.20;;;2.10;;
23060;SDS011;11698;47.690;9.132;2023-03-19T04:52:57;3.50;;;2.22;;
23060;SDS011;11698;47.690;9.132;2023-03-19T04:55:23;5.20;;;2.15;;
23060;SDS011;11698;47.690;9.132;2023-03-19T04:57:49;4.50;;;2.25;;
23060;SDS011;11698;47.690;9.132;2023-03-19T05:00:15;3.88;;;2.00;;
23060;SDS011;11698;47.690;9.132;2023-03-19T05:02:41;5.90;;;2.15;;
23060;SDS011;11698;47.690;9.132;2023-03-19T05:05:08;3.78;;;1.95;;
23060;SDS011;11698;47.690;9.132;2023-03-19T05:07:37;4.15;;;2.25;;
23060;SDS011;11698;47.690;9.132;2023-03-19T05:10:04;4.30;;;1.90;;
23060;SDS011;11698;47.690;9.132;2023-03-19T05:12:30;3.10;;;1.90;;
23060;SDS011;11698;47.690;9.132;2023-03-19T05:14:56;3.38;;;1.90;;
23060;SDS011;11698;47.690;9.132;2023-03-19T05:17:22;3.53;;;2.20;;
23060;SDS011;11698;47.690;9.132;2023-03-19T05:19:49;4.97;;;2.45;;
23060;SDS011;11698;47.690;9.132;2023-03-19T05:22:16;4.15;;;2.08;;
23060;SDS011;11698;47.690;9.132;2023-03-19T05:24:42;5.13;;;2.40;;
23060;SDS011;11698;47.690;9.132;2023-03-19T05:27:08;4.20;;;2.30;;
23060;SDS011;11698;47.690;9.132;2023-03-19T05:29:34;4.78;;;2.47;;
23060;SDS011;11698;47.690;9.132;2023-03-19T05:32:00;5.43;;;2.40;;
23060;SDS011;11698;47.690;9.132;2023-03-19T05:34:27;4.93;;;2.50;;
23060;SDS011;11698;47.690;9.132;2023-03-19T05:36:53;6.47;;;2.70;;
23060;SDS011;11698;47.690;9.132;2023-03-19T05:39:20;5.07;;;2.75;;
23060;SDS011;11698;47.690;9.132;2023-03-19T05:41:46;4.50;;;2.45;;
23060;SDS011;11698;47.690;9.132;2023-03-19T05:44:12;5.25;;;2.05;;
23060;SDS011;11698;47.690;9.132;2023-03-19T05:46:38;3.70;;;2.43;;
23060;SDS011;11698;47.690;9.132;2023-03-19T05:49:04;5.95;;;2.50;;
23060;SDS011;11698;47.690;9.132;2023-03-19T05:51:30;4.80;;;2.63;;
23060;SDS011;11698;47.690;9.132;2023-03-19T05:53:56;4.57;;;2.38;;
23060;SDS011;11698;47.690;9.132;2023-03-19T05:56:22;3.40;;;2.30;;
23060;SDS011;11698;47.690;9.132;2023-03-19T05:58:48;3.20;;;2.10;;
23060;SDS011;11698;47.690;9.132;2023-03-19T06:01:14;5.60;;;2.23;;
23060;SDS011;11698;47.690;9.132;2023-03-19T06:03:40;3.47;;;2.13;;
23060;SDS011;11698;47.690;9.132;2023-03-19T06:06:06;4.80;;;2.42;;
23060;SDS011;11698;47.690;9.132;2023-03-19T06:08:32;4.57;;;2.20;;
23060;SDS011;11698;47.690;9.132;2023-03-19T06:10:58;5.35;;;2.08;;
23060;SDS011;11698;47.690;9.132;2023-03-19T06:13:24;7.15;;;2.50;;
23060;SDS011;11698;47.690;9.132;2023-03-19T06:15:51;4.15;;;2.33;;
23060;SDS011;11698;47.690;9.132;2023-03-19T06:18:17;3.47;;;2.17;;
23060;SDS011;11698;47.690;9.132;2023-03-19T06:20:43;5.35;;;2.22;;
23060;SDS011;11698;47.690;9.132;2023-03-19T06:23:10;4.27;;;2.37;;
23060;SDS011;11698;47.690;9.132;2023-03-19T06:25:36;3.30;;;1.97;;
23060;SDS011;11698;47.690;9.132;2023-03-19T06:28:03;4.90;;;2.20;;
23060;SDS011;11698;47.690;9.132;2023-03-19T06:30:29;4.28;;;2.35;;
23060;SDS011;11698;47.690;9.132;2023-03-19T06:32:55;3.97;;;2.63;;
23060;SDS011;11698;47.690;9.132;2023-03-19T06:35:21;4.90;;;2.40;;
23060;SDS011;11698;47.690;9.132;2023-03-19T06:37:47;3.90;;;2.23;;
23060;SDS011;11698;47.690;9.132;2023-03-19T06:40:13;3.75;;;2.05;;
23060;SDS011;11698;47.690;9.132;2023-03-19T06:42:42;3.60;;;2.45;;
23060;SDS011;11698;47.690;9.132;2023-03-19T06:45:09;3.73;;;2.63;;
23060;SDS011;11698;47.690;9.132;2023-03-19T06:47:35;4.20;;;2.40;;
23060;SDS011;11698;47.690;9.132;2023-03-19T06:50:01;5.30;;;2.42;;
23060;SDS011;11698;47.690;9.132;2023-03-19T06:52:28;5.00;;;2.40;;
23060;SDS011;11698;47.690;9.132;2023-03-19T06:54:54;3.55;;;2.50;;
23060;SDS011;11698;47.690;9.132;2023-03-19T06:57:20;3.85;;;2.28;;
23060;SDS011;11698;47.690;9.132;2023-03-19T06:59:46;4.87;;;2.60;;
23060;SDS011;11698;47.690;9.132;2023-03-19T07:02:12;5.38;;;2.47;;
23060;SDS011;11698;47.690;9.132;2023-03-19T07:04:38;4.03;;;2.53;;
23060;SDS011;11698;47.690;9.132;2023-03-19T07:07:04;5.65;;;2.67;;
23060;SDS011;11698;47.690;9.132;2023-03-19T07:09:30;5.15;;;2.88;;
23060;SDS011;11698;47.690;9.132;2023-03-19T07:11:56;3.88;;;2.22;;
23060;SDS011;11698;47.690;9.132;2023-03-19T07:14:22;3.60;;;2.20;;
23060;SDS011;11698;47.690;9.132;2023-03-19T07:16:49;3.65;;;2.08;;
23060;SDS011;11698;47.690;9.132;2023-03-19T07:19:15;3.92;;;2.33;;
23060;SDS011;11698;47.690;9.132;2023-03-19T07:21:41;4.93;;;2.30;;
23060;SDS011;11698;47.690;9.132;2023-03-19T07:24:07;4.23;;;2.10;;
23060;SDS011;11698;47.690;9.132;2023-03-19T07:26:33;2.90;;;2.33;;
23060;SDS011;11698;47.690;9.132;2023-03-19T07:28:59;3.60;;;2.40;;
23060;SDS011;11698;47.690;9.132;2023-03-19T07:31:25;4.05;;;2.55;;
23060;SDS011;11698;47.690;9.132;2023-03-19T07:33:51;5.90;;;3.60;;
23060;SDS011;11698;47.690;9.132;2023-03-19T07:36:17;5.00;;;3.63;;
23060;SDS011;11698;47.690;9.132;2023-03-19T07:38:45;7.13;;;3.60;;
23060;SDS011;11698;47.690;9.132;2023-03-19T07:41:11;4.47;;;2.88;;
23060;SDS011;11698;47.690;9.132;2023-03-19T07:43:37;4.45;;;2.85;;
23060;SDS011;11698;47.690;9.132;2023-03-19T07:46:03;5.57;;;2.50;;
23060;SDS011;11698;47.690;9.132;2023-03-19T07:48:29;5.57;;;2.80;;
23060;SDS011;11698;47.690;9.132;2023-03-19T07:50:55;7.07;;;3.20;;
23060;SDS011;11698;47.690;9.132;2023-03-19T07:53:21;5.20;;;2.70;;
23060;SDS011;11698;47.690;9.132;2023-03-19T07:55:47;6.25;;;3.08;;
23060;SDS011;11698;47.690;9.132;2023-03-19T07:58:13;5.70;;;3.00;;
23060;SDS011;11698;47.690;9.132;2023-03-19T08:00:40;4.45;;;2.67;;
23060;SDS011;11698;47.690;9.132;2023-03-19T08:03:06;4.57;;;2.60;;
23060;SDS011;11698;47.690;9.132;2023-03-19T08:05:32;4.97;;;2.97;;
23060;SDS011;11698;47.690;9.132;2023-03-19T08:07:58;4.22;;;2.75;;
23060;SDS011;11698;47.690;9.132;2023-03-19T08:10:24;5.17;;;2.83;;
23060;SDS011;11698;47.690;9.132;2023-03-19T08:12:51;6.90;;;3.25;;
23060;SDS011;11698;47.690;9.132;2023-03-19T08:15:18;5.10;;;2.90;;
23060;SDS011;11698;47.690;9.132;2023-03-19T08:17:44;5.28;;;2.75;;
23060;SDS011;11698;47.690;9.132;2023-03-19T08:20:11;6.50;;;2.95;;
23060;SDS011;11698;47.690;9.132;2023-03-19T08:22:37;5.20;;;3.03;;
23060;SDS011;11698;47.690;9.132;2023-03-19T08:25:05;4.75;;;2.60;;
23060;SDS011;11698;47.690;9.132;2023-03-19T08:27:31;4.95;;;2.92;;
23060;SDS011;11698;47.690;9.132;2023-03-19T08:30:01;4.18;;;2.97;;
23060;SDS011;11698;47.690;9.132;2023-03-19T08:32:28;5.23;;;2.90;;
23060;SDS011;11698;47.690;9.132;2023-03-19T08:34:54;5.68;;;3.05;;
23060;SDS011;11698;47.690;9.132;2023-03-19T08:37:20;6.72;;;3.00;;
23060;SDS011;11698;47.690;9.132;2023-03-19T08:39:46;5.47;;;2.95;;
23060;SDS011;11698;47.690;9.132;2023-03-19T08:42:14;5.65;;;2.80;;
23060;SDS011;11698;47.690;9.132;2023-03-19T08:44:40;4.93;;;2.92;;
23060;SDS011;11698;47.690;9.132;2023-03-19T08:47:06;4.35;;;2.40;;
23060;SDS011;11698;47.690;9.132;2023-03-19T08:49:32;5.30;;;3.10;;
23060;SDS011;11698;47.690;9.132;2023-03-19T08:51:58;4.88;;;2.50;;
23060;SDS011;11698;47.690;9.132;2023-03-19T08:54:24;4.68;;;2.45;;
23060;SDS011;11698;47.690;9.132;2023-03-19T08:56:50;4.30;;;2.55;;
23060;SDS011;11698;47.690;9.132;2023-03-19T08:59:16;3.22;;;2.13;;
23060;SDS011;11698;47.690;9.132;2023-03-19T09:01:42;4.43;;;2.17;;
23060;SDS011;11698;47.690;9.132;2023-03-19T09:04:08;3.30;;;2.08;;
23060;SDS011;11698;47.690;9.132;2023-03-19T09:06:34;3.95;;;2.10;;
23060;SDS011;11698;47.690;9.132;2023-03-19T09:09:00;3.30;;;2.20;;
23060;SDS011;11698;47.690;9.132;2023-03-19T09:11:26;4.83;;;2.03;;
23060;SDS011;11698;47.690;9.132;2023-03-19T09:13:53;5.05;;;1.90;;
23060;SDS011;11698;47.690;9.132;2023-03-19T09:16:19;3.50;;;2.10;;
23060;SDS011;11698;47.690;9.132;2023-03-19T09:18:45;4.97;;;2.13;;
23060;SDS011;11698;47.690;9.132;2023-03-19T09:21:11;2.97;;;2.13;;
23060;SDS011;11698;47.690;9.132;2023-03-19T09:23:39;2.65;;;1.80;;
23060;SDS011;11698;47.690;9.132;2023-03-19T09:26:05;3.60;;;2.00;;
23060;SDS011;11698;47.690;9.132;2023-03-19T09:28:31;4.97;;;2.30;;
23060;SDS011;11698;47.690;9.132;2023-03-19T09:30:57;2.72;;;2.08;;
23060;SDS011;11698;47.690;9.132;2023-03-19T09:33:23;3.10;;;2.30;;
23060;SDS011;11698;47.690;9.132;2023-03-19T09:35:50;4.38;;;2.10;;
23060;SDS011;11698;47.690;9.132;2023-03-19T09:38:19;3.20;;;2.10;;
23060;SDS011;11698;47.690;9.132;2023-03-19T09:40:46;2.72;;;1.90;;
23060;SDS011;11698;47.690;9.132;2023-03-19T09:43:30;3.70;;;2.00;;
23060;SDS011;11698;47.690;9.132;2023-03-19T09:46:00;1.90;;;1.50;;
23060;SDS011;11698;47.690;9.132;2023-03-19T09:48:33;3.47;;;1.60;;
23060;SDS011;11698;47.690;9.132;2023-03-19T09:51:01;2.90;;;1.60;;
23060;SDS011;11698;47.690;9.132;2023-03-19T09:56:15;2.85;;;1.50;;
23060;SDS011;11698;47.690;9.132;2023-03-19T09:58:43;2.22;;;1.35;;
23060;SDS011;11698;47.690;9.132;2023-03-19T10:01:16;4.13;;;1.60;;
23060;SDS011;11698;47.690;9.132;2023-03-19T10:06:34;2.63;;;1.77;;
23060;SDS011;11698;47.690;9.132;2023-03-19T10:14:32;3.22;;;1.88;;
23060;SDS011;11698;47.690;9.132;2023-03-19T10:17:01;3.03;;;2.00;;
23060;SDS011;11698;47.690;9.132;2023-03-19T10:19:39;2.57;;;1.80;;
23060;SDS011;11698;47.690;9.132;2023-03-19T10:22:07;2.42;;;1.77;;
23060;SDS011;11698;47.690;9.132;2023-03-19T10:24:37;3.07;;;1.80;;
23060;SDS011;11698;47.690;9.132;2023-03-19T10:27:09;3.10;;;1.70;;
23060;SDS011;11698;47.690;9.132;2023-03-19T10:29:37;3.80;;;1.77;;
23060;SDS011;11698;47.690;9.132;2023-03-19T10:34:41;3.35;;;1.85;;
23060;SDS011;11698;47.690;9.132;2023-03-19T10:39:39;3.30;;;1.52;;
23060;SDS011;11698;47.690;9.132;2023-03-19T10:44:52;4.15;;;2.38;;
23060;SDS011;11698;47.690;9.132;2023-03-19T10:47:24;3.95;;;2.33;;
23060;SDS011;11698;47.690;9.132;2023-03-19T10:49:50;4.57;;;2.35;;
23060;SDS011;11698;47.690;9.132;2023-03-19T10:54:55;3.83;;;1.92;;
23060;SDS011;11698;47.690;9.132;2023-03-19T10:57:24;3.78;;;2.30;;
23060;SDS011;11698;47.690;9.132;2023-03-19T10:59:50;3.40;;;2.28;;
23060;SDS011;11698;47.690;9.132;2023-03-19T11:02:17;2.47;;;2.05;;
23060;SDS011;11698;47.690;9.132;2023-03-19T11:04:43;3.95;;;1.90;;
23060;SDS011;11698;47.690;9.132;2023-03-19T11:07:16;3.72;;;1.60;;
23060;SDS011;11698;47.690;9.132;2023-03-19T11:09:44;2.92;;;1.65;;
23060;SDS011;11698;47.690;9.132;2023-03-19T11:12:16;3.88;;;1.58;;
23060;SDS011;11698;47.690;9.132;2023-03-19T11:14:42;2.95;;;1.63;;
23060;SDS011;11698;47.690;9.132;2023-03-19T11:19:47;2.37;;;1.70;;
23060;SDS011;11698;47.690;9.132;2023-03-19T11:22:15;2.40;;;1.40;;
23060;SDS011;11698;47.690;9.132;2023-03-19T11:24:47;2.30;;;1.48;;
23060;SDS011;11698;47.690;9.132;2023-03-19T11:27:14;2.95;;;1.50;;
23060;SDS011;11698;47.690;9.132;2023-03-19T11:29:41;2.83;;;1.45;;
23060;SDS011;11698;47.690;9.132;2023-03-19T11:34:55;1.92;;;1.38;;
23060;SDS011;11698;47.690;9.132;2023-03-19T11:37:38;3.10;;;1.88;;
23060;SDS011;11698;47.690;9.132;2023-03-19T11:40:19;2.50;;;1.60;;
23060;SDS011;11698;47.690;9.132;2023-03-19T11:45:35;2.88;;;1.83;;
23060;SDS011;11698;47.690;9.132;2023-03-19T11:50:39;3.55;;;1.50;;
23060;SDS011;11698;47.690;9.132;2023-03-19T11:55:40;2.72;;;1.60;;
23060;SDS011;11698;47.690;9.132;2023-03-19T12:00:40;1.30;;;1.10;;
23060;SDS011;11698;47.690;9.132;2023-03-19T12:05:54;2.47;;;1.50;;
23060;SDS011;11698;47.690;9.132;2023-03-19T12:08:28;2.08;;;1.30;;
23060;SDS011;11698;47.690;9.132;2023-03-19T12:24:24;2.30;;;1.40;;
23060;SDS011;11698;47.690;9.132;2023-03-19T12:27:18;2.17;;;1.42;;
23060;SDS011;11698;47.690;9.132;2023-03-19T12:29:53;2.93;;;1.50;;
23060;SDS011;11698;47.690;9.132;2023-03-19T12:35:08;1.60;;;1.25;;
23060;SDS011;11698;47.690;9.132;2023-03-19T12:37:37;3.45;;;1.42;;
23060;SDS011;11698;47.690;9.132;2023-03-19T12:42:33;2.90;;;1.55;;
23060;SDS011;11698;47.690;9.132;2023-03-19T12:45:01;2.55;;;1.45;;
23060;SDS011;11698;47.690;9.132;2023-03-19T12:47:33;2.90;;;1.63;;
23060;SDS011;11698;47.690;9.132;2023-03-19T12:50:00;2.22;;;1.30;;
23060;SDS011;11698;47.690;9.132;2023-03-19T12:52:35;2.42;;;1.50;;
23060;SDS011;11698;47.690;9.132;2023-03-19T12:55:13;2.83;;;1.40;;
23060;SDS011;11698;47.690;9.132;2023-03-19T13:00:21;1.20;;;1.10;;
23060;SDS011;11698;47.690;9.132;2023-03-19T13:03:04;3.28;;;1.60;;
23060;SDS011;11698;47.690;9.132;2023-03-19T13:05:46;3.53;;;1.25;;
23060;SDS011;11698;47.690;9.132;2023-03-19T13:08:17;3.37;;;1.90;;
23060;SDS011;11698;47.690;9.132;2023-03-19T13:10:44;3.40;;;1.92;;
23060;SDS011;11698;47.690;9.132;2023-03-19T13:13:23;13.98;;;7.10;;
23060;SDS011;11698;47.690;9.132;2023-03-19T13:15:51;4.32;;;2.35;;
23060;SDS011;11698;47.690;9.132;2023-03-19T13:23:25;4.77;;;1.93;;
23060;SDS011;11698;47.690;9.132;2023-03-19T13:25:53;3.35;;;1.60;;
23060;SDS011;11698;47.690;9.132;2023-03-19T13:28:31;2.05;;;1.27;;
23060;SDS011;11698;47.690;9.132;2023-03-19T13:31:06;9.32;;;4.60;;
23060;SDS011;11698;47.690;9.132;2023-03-19T13:33:33;3.22;;;1.90;;
23060;SDS011;11698;47.690;9.132;2023-03-19T13:36:00;2.33;;;1.40;;
23060;SDS011;11698;47.690;9.132;2023-03-19T13:38:33;2.50;;;1.48;;
23060;SDS011;11698;47.690;9.132;2023-03-19T13:41:02;3.65;;;1.40;;
23060;SDS011;11698;47.690;9.132;2023-03-19T13:56:12;4.03;;;1.50;;
23060;SDS011;11698;47.690;9.132;2023-03-19T13:58:49;2.58;;;1.30;;
23060;SDS011;11698;47.690;9.132;2023-03-19T14:03:52;3.38;;;1.63;;
23060;SDS011;11698;47.690;9.132;2023-03-19T14:06:29;2.40;;;1.33;;
23060;SDS011;11698;47.690;9.132;2023-03-19T14:08:57;3.25;;;1.10;;
23060;SDS011;11698;47.690;9.132;2023-03-19T14:11:23;1.70;;;1.10;;
23060;SDS011;11698;47.690;9.132;2023-03-19T14:13:50;1.55;;;1.27;;
23060;SDS011;11698;47.690;9.132;2023-03-19T14:16:24;2.42;;;1.60;;
23060;SDS011;11698;47.690;9.132;2023-03-19T14:18:54;1.65;;;1.05;;
23060;SDS011;11698;47.690;9.132;2023-03-19T14:21:32;1.60;;;0.88;;
23060;SDS011;11698;47.690;9.132;2023-03-19T14:26:44;1.60;;;0.93;;
23060;SDS011;11698;47.690;9.132;2023-03-19T14:29:12;1.70;;;1.05;;
23060;SDS011;11698;47.690;9.132;2023-03-19T14:31:40;1.70;;;1.00;;
23060;SDS011;11698;47.690;9.132;2023-03-19T14:36:52;2.35;;;1.17;;
23060;SDS011;11698;47.690;9.132;2023-03-19T14:39:24;1.73;;;1.20;;
23060;SDS011;11698;47.690;9.132;2023-03-19T14:41:55;1.58;;;1.10;;
23060;SDS011;11698;47.690;9.132;2023-03-19T14:57:07;1.48;;;0.80;;
23060;SDS011;11698;47.690;9.132;2023-03-19T14:59:40;1.85;;;1.10;;
23060;SDS011;11698;47.690;9.132;2023-03-19T15:02:16;2.17;;;0.90;;
23060;SDS011;11698;47.690;9.132;2023-03-19T15:04:44;1.50;;;1.40;;
23060;SDS011;11698;47.690;9.132;2023-03-19T15:07:16;2.55;;;1.30;;
23060;SDS011;11698;47.690;9.132;2023-03-19T15:09:43;2.63;;;1.45;;
23060;SDS011;11698;47.690;9.132;2023-03-19T15:19:40;2.15;;;1.30;;
23060;SDS011;11698;47.690;9.132;2023-03-19T15:22:11;1.75;;;1.00;;
23060;SDS011;11698;47.690;9.132;2023-03-19T15:24:37;2.70;;;1.10;;
23060;SDS011;11698;47.690;9.132;2023-03-19T15:27:22;2.60;;;1.30;;
23060;SDS011;11698;47.690;9.132;2023-03-19T15:29:49;2.25;;;1.20;;
23060;SDS011;11698;47.690;9.132;2023-03-19T15:32:32;2.10;;;1.05;;
23060;SDS011;11698;47.690;9.132;2023-03-19T15:34:58;1.40;;;0.90;;
23060;SDS011;11698;47.690;9.132;2023-03-19T15:37:24;1.60;;;1.20;;
23060;SDS011;11698;47.690;9.132;2023-03-19T15:39:52;2.67;;;0.80;;
23060;SDS011;11698;47.690;9.132;2023-03-19T15:42:19;2.53;;;1.20;;
23060;SDS011;11698;47.690;9.132;2023-03-19T15:44:48;1.92;;;0.88;;
23060;SDS011;11698;47.690;9.132;2023-03-19T15:47:17;2.80;;;1.15;;
23060;SDS011;11698;47.690;9.132;2023-03-19T15:49:52;2.08;;;1.05;;
23060;SDS011;11698;47.690;9.132;2023-03-19T15:52:20;1.70;;;0.80;;
23060;SDS011;11698;47.690;9.132;2023-03-19T15:54:46;2.05;;;0.85;;
23060;SDS011;11698;47.690;9.132;2023-03-19T15:57:13;3.50;;;1.30;;
23060;SDS011;11698;47.690;9.132;2023-03-19T15:59:40;1.10;;;0.90;;
23060;SDS011;11698;47.690;9.132;2023-03-19T16:02:12;2.70;;;1.02;;
23060;SDS011;11698;47.690;9.132;2023-03-19T16:04:39;2.08;;;1.08;;
23060;SDS011;11698;47.690;9.132;2023-03-19T16:07:20;1.65;;;1.00;;
23060;SDS011;11698;47.690;9.132;2023-03-19T16:09:47;0.82;;;0.77;;
23060;SDS011;11698;47.690;9.132;2023-03-19T16:14:57;1.02;;;0.70;;
23060;SDS011;11698;47.690;9.132;2023-03-19T16:17:32;1.77;;;0.95;;
23060;SDS011;11698;47.690;9.132;2023-03-19T16:19:59;1.00;;;0.90;;
23060;SDS011;11698;47.690;9.132;2023-03-19T16:22:29;4.80;;;3.08;;
23060;SDS011;11698;47.690;9.132;2023-03-19T16:24:55;1.55;;;1.45;;
23060;SDS011;11698;47.690;9.132;2023-03-19T16:27:29;2.30;;;2.00;;
23060;SDS011;11698;47.690;9.132;2023-03-19T16:30:00;1.77;;;1.30;;
23060;SDS011;11698;47.690;9.132;2023-03-19T16:32:26;1.90;;;1.80;;
23060;SDS011;11698;47.690;9.132;2023-03-19T16:34:53;1.53;;;1.17;;
23060;SDS011;11698;47.690;9.132;2023-03-19T16:37:30;1.02;;;0.93;;
23060;SDS011;11698;47.690;9.132;2023-03-19T16:40:40;0.82;;;0.80;;
23060;SDS011;11698;47.690;9.132;2023-03-19T16:42:51;1.27;;;1.00;;